Time,TemperatureF,DewpointF,PressureIn,WindDirection,WindDirectionDegrees,WindSpeedMPH,WindSpeedGustMPH,Humidity,HourlyPrecipIn,Conditions,Clouds,dailyrainin,SoftwareType,DateUTC
2013-02-27 00:00:00,30.4,26.5,27.71,East,90,0.0,1.3,85,0.00,,,0.00,WUHU216HW,2013-02-27 08:00:00,
2013-02-27 00:05:00,30.4,26.5,27.71,East,90,0.0,1.3,85,0.00,,,0.00,WUHU216HW,2013-02-27 08:05:00,
2013-02-27 00:10:00,30.4,26.5,27.71,West,270,0.0,0.2,85,0.00,,,0.00,WUHU216HW,2013-02-27 08:10:00,
2013-02-27 00:15:00,30.2,26.3,27.71,SSE,158,0.2,0.2,85,0.00,,,0.00,WUHU216HW,2013-02-27 08:15:00,
2013-02-27 00:20:00,30.4,26.5,27.71,ESE,113,1.1,1.1,85,0.00,,,0.00,WUHU216HW,2013-02-27 08:20:00,
2013-02-27 00:25:00,30.4,26.5,27.71,SE,135,1.1,1.1,85,0.00,,,0.00,WUHU216HW,2013-02-27 08:25:00,
2013-02-27 00:30:00,30.6,26.4,27.70,ESE,113,0.4,1.1,84,0.00,,,0.00,WUHU216HW,2013-02-27 08:30:00,
2013-02-27 00:35:00,30.6,26.4,27.70,ENE,68,0.0,0.4,84,0.00,,,0.00,WUHU216HW,2013-02-27 08:35:00,
2013-02-27 00:40:00,30.4,26.2,27.70,ENE,68,0.0,0.4,84,0.00,,,0.00,WUHU216HW,2013-02-27 08:40:00,
2013-02-27 00:45:00,30.4,26.2,27.70,ESE,113,0.0,0.4,84,0.00,,,0.00,WUHU216HW,2013-02-27 08:45:00,
2013-02-27 00:50:00,30.2,26.0,27.70,ESE,113,0.0,0.9,84,0.00,,,0.00,WUHU216HW,2013-02-27 08:50:00,
2013-02-27 00:55:00,30.2,26.0,27.70,ESE,113,0.0,0.9,84,0.00,,,0.00,WUHU216HW,2013-02-27 08:55:00,
2013-02-27 01:00:00,30.2,26.0,27.70,SE,135,1.1,1.1,84,0.00,,,0.00,WUHU216HW,2013-02-27 09:00:00,
2013-02-27 01:05:00,30.2,26.0,27.70,East,90,0.2,1.6,84,0.00,,,0.00,WUHU216HW,2013-02-27 09:05:00,
2013-02-27 01:10:00,30.2,26.0,27.70,ESE,113,1.3,1.8,84,0.00,,,0.00,WUHU216HW,2013-02-27 09:10:00,
2013-02-27 01:15:00,30.2,25.8,27.70,SE,135,0.0,1.8,83,0.00,,,0.00,WUHU216HW,2013-02-27 09:15:00,
2013-02-27 01:20:00,30.2,25.8,27.70,ENE,68,0.0,0.4,83,0.00,,,0.00,WUHU216HW,2013-02-27 09:20:00,
2013-02-27 01:25:00,30.4,26.2,27.69,SE,135,0.4,1.1,84,0.00,,,0.00,WUHU216HW,2013-02-27 09:25:00,
2013-02-27 01:30:00,30.6,26.4,27.69,ESE,113,1.1,2.2,84,0.00,,,0.00,WUHU216HW,2013-02-27 09:30:00,
2013-02-27 01:35:00,31.0,26.5,27.69,East,90,1.8,2.9,83,0.00,,,0.00,WUHU216HW,2013-02-27 09:35:00,
2013-02-27 01:40:00,31.1,26.7,27.69,ESE,113,0.0,2.9,83,0.00,,,0.00,WUHU216HW,2013-02-27 09:40:00,
2013-02-27 01:45:00,31.3,26.2,27.69,ESE,113,1.1,2.5,81,0.00,,,0.00,WUHU216HW,2013-02-27 09:45:00,
2013-02-27 01:50:00,31.7,26.6,27.70,ESE,113,1.6,2.5,81,0.00,,,0.00,WUHU216HW,2013-02-27 09:50:00,
2013-02-27 01:55:00,31.9,26.5,27.70,SE,135,1.8,1.8,80,0.00,,,0.00,WUHU216HW,2013-02-27 09:55:00,
2013-02-27 02:00:00,31.9,26.5,27.69,ESE,113,0.4,2.5,80,0.00,,,0.00,WUHU216HW,2013-02-27 10:00:00,
2013-02-27 02:05:00,31.9,26.5,27.69,SE,135,3.1,3.1,80,0.00,,,0.00,WUHU216HW,2013-02-27 10:05:00,
2013-02-27 02:10:00,31.9,26.5,27.68,East,90,1.1,3.1,80,0.00,,,0.00,WUHU216HW,2013-02-27 10:10:00,
2013-02-27 02:15:00,31.9,26.5,27.69,East,90,0.7,2.9,80,0.00,,,0.00,WUHU216HW,2013-02-27 10:15:00,
2013-02-27 02:20:00,31.7,26.3,27.69,East,90,0.9,2.9,80,0.00,,,0.00,WUHU216HW,2013-02-27 10:20:00,
2013-02-27 02:25:00,31.5,26.1,27.69,ENE,68,0.4,1.1,80,0.00,,,0.00,WUHU216HW,2013-02-27 10:25:00,
2013-02-27 02:30:00,31.3,25.9,27.69,ESE,113,0.0,1.1,80,0.00,,,0.00,WUHU216HW,2013-02-27 10:30:00,
2013-02-27 02:35:00,31.3,26.2,27.69,East,90,0.0,0.4,81,0.00,,,0.00,WUHU216HW,2013-02-27 10:35:00,
2013-02-27 02:40:00,31.1,26.0,27.68,East,90,0.0,0.4,81,0.00,,,0.00,WUHU216HW,2013-02-27 10:40:00,
2013-02-27 02:45:00,31.1,26.0,27.69,East,90,0.0,0.0,81,0.00,,,0.00,WUHU216HW,2013-02-27 10:45:00,
2013-02-27 02:50:00,31.1,26.0,27.69,East,90,0.0,0.0,81,0.00,,,0.00,WUHU216HW,2013-02-27 10:50:00,
2013-02-27 02:55:00,31.1,26.0,27.69,East,90,0.0,0.0,81,0.00,,,0.00,WUHU216HW,2013-02-27 10:55:00,
2013-02-27 03:00:00,31.1,26.0,27.69,ENE,68,0.0,0.4,81,0.00,,,0.00,WUHU216HW,2013-02-27 11:00:00,
2013-02-27 03:05:00,31.1,26.0,27.69,ENE,68,0.0,0.4,81,0.00,,,0.00,WUHU216HW,2013-02-27 11:05:00,
2013-02-27 03:10:00,31.1,26.0,27.69,ENE,68,0.0,0.0,81,0.00,,,0.00,WUHU216HW,2013-02-27 11:10:00,
2013-02-27 03:15:00,31.0,25.8,27.69,ENE,68,0.0,0.0,81,0.00,,,0.00,WUHU216HW,2013-02-27 11:15:00,
2013-02-27 03:20:00,31.0,25.8,27.69,ENE,68,0.0,0.0,81,0.00,,,0.00,WUHU216HW,2013-02-27 11:20:00,
2013-02-27 03:25:00,30.8,25.7,27.69,ENE,68,0.0,0.0,81,0.00,,,0.00,WUHU216HW,2013-02-27 11:25:00,
2013-02-27 03:30:00,30.8,25.9,27.69,ENE,68,0.0,0.0,82,0.00,,,0.00,WUHU216HW,2013-02-27 11:30:00,
2013-02-27 03:35:00,30.8,25.9,27.68,ENE,68,0.0,0.0,82,0.00,,,0.00,WUHU216HW,2013-02-27 11:35:00,
2013-02-27 03:40:00,30.8,25.9,27.68,ENE,68,0.0,0.0,82,0.00,,,0.00,WUHU216HW,2013-02-27 11:40:00,
2013-02-27 03:45:00,30.8,25.9,27.67,East,90,0.0,0.0,82,0.00,,,0.00,WUHU216HW,2013-02-27 11:45:00,
2013-02-27 03:50:00,31.0,26.5,27.67,SE,135,0.2,0.2,83,0.00,,,0.00,WUHU216HW,2013-02-27 11:50:00,
2013-02-27 03:55:00,31.0,26.1,27.66,ESE,113,0.0,0.2,82,0.00,,,0.00,WUHU216HW,2013-02-27 11:55:00,
2013-02-27 04:00:00,31.0,26.1,27.66,ESE,113,0.0,0.2,82,0.00,,,0.00,WUHU216HW,2013-02-27 12:00:00,
2013-02-27 04:05:00,31.1,26.3,27.66,ESE,113,0.0,0.2,82,0.00,,,0.00,WUHU216HW,2013-02-27 12:05:00,
2013-02-27 04:10:00,31.1,26.3,27.66,SW,225,0.0,0.0,82,0.00,,,0.00,WUHU216HW,2013-02-27 12:10:00,
2013-02-27 04:15:00,31.1,26.3,27.66,SW,225,0.0,0.0,82,0.00,,,0.00,WUHU216HW,2013-02-27 12:15:00,
2013-02-27 04:20:00,31.0,26.1,27.66,SW,225,0.0,0.0,82,0.00,,,0.00,WUHU216HW,2013-02-27 12:20:00,
2013-02-27 04:25:00,31.0,26.1,27.67,SE,135,0.2,0.2,82,0.00,,,0.00,WUHU216HW,2013-02-27 12:25:00,
2013-02-27 04:30:00,31.3,26.2,27.67,SSE,158,0.4,1.6,81,0.00,,,0.00,WUHU216HW,2013-02-27 12:30:00,
2013-02-27 04:35:00,31.9,26.5,27.67,SE,135,1.6,2.9,80,0.00,,,0.00,WUHU216HW,2013-02-27 12:35:00,
2013-02-27 04:40:00,32.4,26.6,27.67,SE,135,0.9,3.4,79,0.00,,,0.00,WUHU216HW,2013-02-27 12:40:00,
2013-02-27 04:45:00,32.6,26.8,27.67,SSE,158,1.1,3.4,79,0.00,,,0.00,WUHU216HW,2013-02-27 12:45:00,
2013-02-27 04:50:00,32.6,26.5,27.67,SE,135,1.1,2.0,78,0.00,,,0.00,WUHU216HW,2013-02-27 12:50:00,
2013-02-27 04:55:00,32.6,26.8,27.68,ESE,113,1.8,1.8,79,0.00,,,0.00,WUHU216HW,2013-02-27 12:55:00,
2013-02-27 05:00:00,32.6,26.8,27.68,ESE,113,0.4,1.8,79,0.00,,,0.00,WUHU216HW,2013-02-27 13:00:00,
2013-02-27 05:05:00,32.2,26.5,27.68,ESE,113,0.0,1.8,79,0.00,,,0.00,WUHU216HW,2013-02-27 13:05:00,
2013-02-27 05:10:00,31.9,25.8,27.69,East,90,0.0,0.2,78,0.00,,,0.00,WUHU216HW,2013-02-27 13:10:00,
2013-02-27 05:15:00,31.7,25.9,27.69,East,90,0.0,0.0,79,0.00,,,0.00,WUHU216HW,2013-02-27 13:15:00,
2013-02-27 05:20:00,31.3,25.6,27.69,SE,135,0.4,0.4,79,0.00,,,0.00,WUHU216HW,2013-02-27 13:20:00,
2013-02-27 05:25:00,31.3,25.9,27.69,SE,135,0.4,1.1,80,0.00,,,0.00,WUHU216HW,2013-02-27 13:25:00,
2013-02-27 05:30:00,31.5,26.1,27.69,SE,135,0.0,1.1,80,0.00,,,0.00,WUHU216HW,2013-02-27 13:30:00,
2013-02-27 05:35:00,31.7,26.3,27.70,SE,135,0.2,0.4,80,0.00,,,0.00,WUHU216HW,2013-02-27 13:35:00,
2013-02-27 05:40:00,31.5,26.1,27.70,East,90,0.0,0.2,80,0.00,,,0.00,WUHU216HW,2013-02-27 13:40:00,
2013-02-27 05:45:00,31.3,25.9,27.70,East,90,0.0,0.0,80,0.00,,,0.00,WUHU216HW,2013-02-27 13:45:00,
2013-02-27 05:50:00,31.1,25.7,27.70,East,90,0.0,0.2,80,0.00,,,0.00,WUHU216HW,2013-02-27 13:50:00,
2013-02-27 05:55:00,31.0,25.8,27.70,SE,135,0.4,0.4,81,0.00,,,0.00,WUHU216HW,2013-02-27 13:55:00,
2013-02-27 06:00:00,31.3,26.2,27.70,SE,135,2.2,2.7,81,0.00,,,0.00,WUHU216HW,2013-02-27 14:00:00,
2013-02-27 06:05:00,31.9,26.5,27.70,SE,135,1.3,2.7,80,0.00,,,0.00,WUHU216HW,2013-02-27 14:05:00,
2013-02-27 06:10:00,32.0,26.6,27.70,SE,135,0.9,2.0,80,0.00,,,0.00,WUHU216HW,2013-02-27 14:10:00,
2013-02-27 06:15:00,32.0,26.6,27.69,ESE,113,0.9,1.8,80,0.00,,,0.00,WUHU216HW,2013-02-27 14:15:00,
2013-02-27 06:20:00,32.0,26.6,27.69,SE,135,0.9,2.2,80,0.00,,,0.00,WUHU216HW,2013-02-27 14:20:00,
2013-02-27 06:25:00,32.0,26.6,27.70,ESE,113,1.6,2.5,80,0.00,,,0.00,WUHU216HW,2013-02-27 14:25:00,
2013-02-27 06:30:00,31.9,26.1,27.70,ESE,113,1.8,2.5,79,0.00,,,0.00,WUHU216HW,2013-02-27 14:30:00,
2013-02-27 06:35:00,31.9,26.1,27.70,SE,135,0.0,1.8,79,0.00,,,0.00,WUHU216HW,2013-02-27 14:35:00,
2013-02-27 06:40:00,31.9,26.5,27.70,ESE,113,0.7,2.5,80,0.00,,,0.00,WUHU216HW,2013-02-27 14:40:00,
2013-02-27 06:45:00,31.7,25.9,27.70,ESE,113,0.0,2.5,79,0.00,,,0.00,WUHU216HW,2013-02-27 14:45:00,
2013-02-27 07:11:00,30.6,25.5,27.69,East,90,0.0,0.0,81,0.00,,,0.00,WUHU216HW,2013-02-27 15:11:00,
2013-02-27 07:16:00,30.6,25.7,27.70,SE,135,0.4,1.1,82,0.00,,,0.00,WUHU216HW,2013-02-27 15:16:00,
2013-02-27 07:21:00,31.1,26.0,27.70,SSE,158,0.4,2.2,81,0.00,,,0.00,WUHU216HW,2013-02-27 15:21:00,
2013-02-27 07:26:00,31.3,25.9,27.70,SE,135,1.3,2.2,80,0.00,,,0.00,WUHU216HW,2013-02-27 15:26:00,
2013-02-27 07:31:00,31.7,26.3,27.70,SE,135,1.3,1.8,80,0.00,,,0.00,WUHU216HW,2013-02-27 15:31:00,
2013-02-27 07:36:00,31.9,26.1,27.70,SE,135,1.8,1.8,79,0.00,,,0.00,WUHU216HW,2013-02-27 15:36:00,
2013-02-27 07:41:00,32.0,26.6,27.70,ESE,113,1.6,1.8,80,0.00,,,0.00,WUHU216HW,2013-02-27 15:41:00,
2013-02-27 07:46:00,32.0,26.6,27.70,SE,135,1.1,1.8,80,0.00,,,0.00,WUHU216HW,2013-02-27 15:46:00,
2013-02-27 07:51:00,32.0,26.3,27.71,ESE,113,0.7,1.8,79,0.00,,,0.00,WUHU216HW,2013-02-27 15:51:00,
2013-02-27 07:56:00,32.0,26.3,27.71,SE,135,1.8,1.8,79,0.00,,,0.00,WUHU216HW,2013-02-27 15:56:00,
2013-02-27 08:01:00,32.0,26.6,27.71,ENE,68,0.4,1.8,80,0.00,,,0.00,WUHU216HW,2013-02-27 16:01:00,
2013-02-27 08:06:00,32.2,26.8,27.72,ESE,113,0.7,1.8,80,0.00,,,0.00,WUHU216HW,2013-02-27 16:06:00,
2013-02-27 08:12:00,33.5,26.6,27.72,SE,135,1.1,2.0,76,0.00,,,0.00,WUHU216HW,2013-02-27 16:12:00,
2013-02-27 08:17:00,34.2,26.6,27.72,SSE,158,0.4,2.5,74,0.00,,,0.00,WUHU216HW,2013-02-27 16:17:00,
2013-02-27 08:21:00,34.9,27.1,27.73,SE,135,2.2,2.5,73,0.00,,,0.00,WUHU216HW,2013-02-27 16:21:00,
2013-02-27 08:26:00,35.6,27.8,27.73,ENE,68,1.8,2.5,73,0.00,,,0.00,WUHU216HW,2013-02-27 16:26:00,
2013-02-27 08:31:00,36.0,27.8,27.73,SW,225,0.4,2.5,72,0.00,,,0.00,WUHU216HW,2013-02-27 16:31:00,
2013-02-27 08:37:00,36.0,27.2,27.73,ENE,68,0.2,1.8,70,0.00,,,0.00,WUHU216HW,2013-02-27 16:37:00,
2013-02-27 08:42:00,36.0,27.2,27.73,SSE,158,2.7,2.7,70,0.00,,,0.00,WUHU216HW,2013-02-27 16:42:00,
2013-02-27 08:47:00,36.2,27.4,27.73,SE,135,1.6,2.7,70,0.00,,,0.00,WUHU216HW,2013-02-27 16:47:00,
2013-02-27 08:52:00,36.4,27.2,27.73,South,180,0.4,3.8,69,0.00,,,0.00,WUHU216HW,2013-02-27 16:52:00,
2013-02-27 08:57:00,36.4,27.5,27.73,SSE,158,0.4,3.8,70,0.00,,,0.00,WUHU216HW,2013-02-27 16:57:00,
2013-02-27 09:02:00,36.7,27.6,27.73,ESE,113,4.7,4.7,69,0.00,,,0.00,WUHU216HW,2013-02-27 17:02:00,
2013-02-27 09:07:00,36.9,27.7,27.73,South,180,1.8,4.7,69,0.00,,,0.00,WUHU216HW,2013-02-27 17:07:00,
2013-02-27 09:12:00,37.1,27.9,27.73,South,180,1.3,4.7,69,0.00,,,0.00,WUHU216HW,2013-02-27 17:12:00,
2013-02-27 09:17:00,37.4,28.3,27.73,SSW,203,1.8,4.5,69,0.00,,,0.00,WUHU216HW,2013-02-27 17:17:00,
2013-02-27 09:22:00,38.3,28.7,27.72,SW,225,3.4,3.4,68,0.00,,,0.00,WUHU216HW,2013-02-27 17:22:00,
2013-02-27 09:27:00,38.5,28.4,27.72,SW,225,1.8,6.3,67,0.00,,,0.00,WUHU216HW,2013-02-27 17:27:00,
2013-02-27 09:32:00,38.5,28.1,27.72,WSW,248,2.5,6.3,66,0.00,,,0.00,WUHU216HW,2013-02-27 17:32:00,
2013-02-27 09:37:00,38.2,28.2,27.71,SSW,203,1.8,4.5,67,0.00,,,0.00,WUHU216HW,2013-02-27 17:37:00,
2013-02-27 09:42:00,38.7,27.9,27.71,SSE,158,2.5,4.0,65,0.00,,,0.00,WUHU216HW,2013-02-27 17:42:00,
2013-02-27 09:47:00,39.2,28.0,27.71,SW,225,1.1,4.3,64,0.00,,,0.00,WUHU216HW,2013-02-27 17:47:00,
2013-02-27 09:52:00,39.6,28.7,27.71,SSW,203,2.0,5.4,65,0.00,,,0.00,WUHU216HW,2013-02-27 17:52:00,
2013-02-27 09:57:00,40.7,29.1,27.71,South,180,1.8,5.4,63,0.00,,,0.00,WUHU216HW,2013-02-27 17:57:00,
2013-02-27 10:02:00,41.2,29.5,27.71,SE,135,2.7,4.0,63,0.00,,,0.00,WUHU216HW,2013-02-27 18:02:00,
2013-02-27 10:07:00,41.4,29.7,27.72,SSW,203,2.5,4.3,63,0.00,,,0.00,WUHU216HW,2013-02-27 18:07:00,
2013-02-27 10:12:00,41.4,29.0,27.72,SW,225,3.4,6.5,61,0.00,,,0.00,WUHU216HW,2013-02-27 18:12:00,
2013-02-27 10:17:00,41.8,29.7,27.73,SE,135,2.2,6.5,62,0.00,,,0.00,WUHU216HW,2013-02-27 18:17:00,
2013-02-27 10:22:00,42.3,29.4,27.73,SSW,203,1.1,4.0,60,0.00,,,0.00,WUHU216HW,2013-02-27 18:22:00,
2013-02-27 10:27:00,42.5,29.2,27.73,South,180,1.8,3.4,59,0.00,,,0.00,WUHU216HW,2013-02-27 18:27:00,
2013-02-27 10:32:00,42.8,29.4,27.73,SW,225,3.4,4.7,59,0.00,,,0.00,WUHU216HW,2013-02-27 18:32:00,
2013-02-27 10:37:00,42.8,29.9,27.73,SW,225,3.6,4.7,60,0.00,,,0.00,WUHU216HW,2013-02-27 18:37:00,
2013-02-27 10:42:00,43.0,30.1,27.72,SW,225,3.6,4.5,60,0.00,,,0.00,WUHU216HW,2013-02-27 18:42:00,
2013-02-27 10:47:00,42.7,29.3,27.72,South,180,1.8,5.6,59,0.00,,,0.00,WUHU216HW,2013-02-27 18:47:00,
2013-02-27 10:52:00,42.7,30.2,27.72,SW,225,3.4,5.6,61,0.00,,,0.00,WUHU216HW,2013-02-27 18:52:00,
2013-02-27 10:57:00,42.7,30.5,27.72,SSE,158,2.2,4.7,62,0.00,,,0.00,WUHU216HW,2013-02-27 18:57:00,
2013-02-27 11:02:00,42.8,30.2,27.71,SW,225,3.4,4.0,61,0.00,,,0.00,WUHU216HW,2013-02-27 19:02:00,
2013-02-27 11:07:00,43.0,29.6,27.71,SSE,158,1.8,5.1,59,0.00,,,0.00,WUHU216HW,2013-02-27 19:07:00,
2013-02-27 11:12:00,43.0,30.1,27.71,SSW,203,0.7,6.0,60,0.00,,,0.00,WUHU216HW,2013-02-27 19:12:00,
2013-02-27 11:17:00,43.0,30.4,27.70,SW,225,2.5,6.0,61,0.00,,,0.00,WUHU216HW,2013-02-27 19:17:00,
2013-02-27 11:21:00,43.0,29.2,27.70,SW,225,4.9,6.3,58,0.00,,,0.00,WUHU216HW,2013-02-27 19:21:00,
2013-02-27 11:26:00,44.1,30.2,27.70,WSW,248,6.0,8.5,58,0.00,,,0.00,WUHU216HW,2013-02-27 19:26:00,
2013-02-27 11:31:00,45.0,30.7,27.70,SW,225,3.6,8.5,57,0.00,,,0.00,WUHU216HW,2013-02-27 19:31:00,
2013-02-27 11:36:00,44.8,30.5,27.70,SW,225,4.9,6.5,57,0.00,,,0.00,WUHU216HW,2013-02-27 19:36:00,
2013-02-27 11:41:00,44.3,30.0,27.71,SW,225,2.9,5.1,57,0.00,,,0.00,WUHU216HW,2013-02-27 19:41:00,
2013-02-27 11:46:00,44.3,30.0,27.71,SSW,203,3.8,4.9,57,0.00,,,0.00,WUHU216HW,2013-02-27 19:46:00,
2013-02-27 11:51:00,44.3,30.4,27.71,SSW,203,3.6,4.7,58,0.00,,,0.00,WUHU216HW,2013-02-27 19:51:00,
2013-02-27 11:56:00,45.4,31.0,27.72,South,180,1.6,4.5,57,0.00,,,0.00,WUHU216HW,2013-02-27 19:56:00,
2013-02-27 12:01:00,45.2,29.9,27.72,ESE,113,2.5,4.3,55,0.00,,,0.00,WUHU216HW,2013-02-27 20:01:00,
2013-02-27 12:06:00,45.0,31.2,27.72,SW,225,1.1,4.3,58,0.00,,,0.00,WUHU216HW,2013-02-27 20:06:00,
2013-02-27 12:11:00,45.7,31.3,27.72,WSW,248,3.4,5.4,57,0.00,,,0.00,WUHU216HW,2013-02-27 20:11:00,
2013-02-27 12:16:00,46.4,31.1,27.72,SSW,203,1.6,5.4,55,0.00,,,0.00,WUHU216HW,2013-02-27 20:16:00,
2013-02-27 12:22:00,46.6,31.2,27.72,SE,135,1.8,5.1,55,0.00,,,0.00,WUHU216HW,2013-02-27 20:22:00,
2013-02-27 12:27:00,47.2,32.2,27.72,East,90,4.7,5.1,56,0.00,,,0.00,WUHU216HW,2013-02-27 20:27:00,
2013-02-27 12:32:00,47.0,31.6,27.72,SE,135,1.1,5.6,55,0.00,,,0.00,WUHU216HW,2013-02-27 20:32:00,
2013-02-27 12:37:00,47.7,33.2,27.71,SSE,158,2.0,5.6,57,0.00,,,0.00,WUHU216HW,2013-02-27 20:37:00,
2013-02-27 12:42:00,48.4,31.1,27.71,NNW,338,0.9,4.3,51,0.00,,,0.00,WUHU216HW,2013-02-27 20:42:00,
2013-02-27 12:47:00,47.2,30.3,27.71,SW,225,4.7,4.7,52,0.00,,,0.00,WUHU216HW,2013-02-27 20:47:00,
2013-02-27 12:52:00,46.3,30.9,27.71,WSW,248,2.5,4.7,55,0.00,,,0.00,WUHU216HW,2013-02-27 20:52:00,
2013-02-27 12:57:00,46.8,30.5,27.71,South,180,4.0,6.9,53,0.00,,,0.00,WUHU216HW,2013-02-27 20:57:00,
2013-02-27 13:02:00,45.7,30.4,27.70,SW,225,2.5,6.9,55,0.00,,,0.00,WUHU216HW,2013-02-27 21:02:00,
2013-02-27 13:07:00,45.7,30.9,27.70,South,180,1.8,5.6,56,0.00,,,0.00,WUHU216HW,2013-02-27 21:07:00,
2013-02-27 13:11:00,47.2,31.3,27.70,SW,225,1.6,5.1,54,0.00,,,0.00,WUHU216HW,2013-02-27 21:11:00,
2013-02-27 13:16:00,47.2,31.3,27.70,West,270,4.3,6.0,54,0.00,,,0.00,WUHU216HW,2013-02-27 21:16:00,
2013-02-27 13:21:00,46.3,30.9,27.70,WSW,248,2.9,6.0,55,0.00,,,0.00,WUHU216HW,2013-02-27 21:21:00,
2013-02-27 13:26:00,45.2,30.8,27.70,SW,225,2.7,6.9,57,0.00,,,0.00,WUHU216HW,2013-02-27 21:26:00,
2013-02-27 13:32:00,44.8,30.5,27.70,SSW,203,2.2,6.9,57,0.00,,,0.00,WUHU216HW,2013-02-27 21:32:00,
2013-02-27 13:37:00,45.0,30.7,27.70,SSW,203,4.5,5.1,57,0.00,,,0.00,WUHU216HW,2013-02-27 21:37:00,
2013-02-27 13:42:00,45.0,31.2,27.70,SW,225,3.8,4.5,58,0.00,,,0.00,WUHU216HW,2013-02-27 21:42:00,
2013-02-27 13:47:00,45.0,29.8,27.70,NW,315,1.6,5.4,55,0.00,,,0.00,WUHU216HW,2013-02-27 21:47:00,
2013-02-27 13:52:00,45.0,30.7,27.70,SSW,203,3.4,5.4,57,0.00,,,0.00,WUHU216HW,2013-02-27 21:52:00,
2013-02-27 13:57:00,45.0,30.3,27.71,WSW,248,4.7,4.7,56,0.00,,,0.00,WUHU216HW,2013-02-27 21:57:00,
2013-02-27 14:01:00,44.8,29.6,27.71,SW,225,2.0,4.7,55,0.00,,,0.00,WUHU216HW,2013-02-27 22:01:00,
2013-02-27 14:06:00,45.0,30.3,27.71,SW,225,2.2,4.7,56,0.00,,,0.00,WUHU216HW,2013-02-27 22:06:00,
2013-02-27 14:11:00,44.8,30.1,27.71,SSW,203,4.0,4.0,56,0.00,,,0.00,WUHU216HW,2013-02-27 22:11:00,
2013-02-27 14:16:00,44.6,30.3,27.71,SW,225,0.4,4.0,57,0.00,,,0.00,WUHU216HW,2013-02-27 22:16:00,
2013-02-27 14:21:00,44.6,29.9,27.71,SW,225,2.9,4.0,56,0.00,,,0.00,WUHU216HW,2013-02-27 22:21:00,
2013-02-27 14:26:00,44.3,29.5,27.71,SSW,203,4.0,4.0,56,0.00,,,0.00,WUHU216HW,2013-02-27 22:26:00,
2013-02-27 14:32:00,44.1,29.3,27.71,SSW,203,2.2,4.0,56,0.00,,,0.00,WUHU216HW,2013-02-27 22:32:00,
2013-02-27 14:37:00,44.1,29.8,27.71,WSW,248,2.9,4.0,57,0.00,,,0.00,WUHU216HW,2013-02-27 22:37:00,
2013-02-27 14:42:00,43.9,29.2,27.71,SW,225,2.2,3.1,56,0.00,,,0.00,WUHU216HW,2013-02-27 22:42:00,
2013-02-27 14:46:00,43.9,29.2,27.70,SW,225,1.8,3.1,56,0.00,,,0.00,WUHU216HW,2013-02-27 22:46:00,
2013-02-27 14:51:00,44.3,30.0,27.70,SW,225,1.3,2.9,57,0.00,,,0.00,WUHU216HW,2013-02-27 22:51:00,
2013-02-27 14:56:00,44.5,29.7,27.70,SW,225,2.5,4.0,56,0.00,,,0.00,WUHU216HW,2013-02-27 22:56:00,
2013-02-27 15:01:00,44.5,29.3,27.70,SSW,203,1.8,4.3,55,0.00,,,0.00,WUHU216HW,2013-02-27 23:01:00,
2013-02-27 15:06:00,44.5,28.8,27.70,South,180,0.7,4.3,54,0.00,,,0.00,WUHU216HW,2013-02-27 23:06:00,
2013-02-27 15:11:00,45.2,30.3,27.70,South,180,2.2,3.1,56,0.00,,,0.00,WUHU216HW,2013-02-27 23:11:00,
2013-02-27 15:16:00,45.4,30.5,27.69,SW,225,1.6,2.2,56,0.00,,,0.00,WUHU216HW,2013-02-27 23:16:00,
2013-02-27 15:21:00,45.5,30.7,27.69,NE,45,2.2,2.2,56,0.00,,,0.00,WUHU216HW,2013-02-27 23:21:00,
2013-02-27 15:26:00,45.0,30.3,27.69,ESE,113,0.4,2.2,56,0.00,,,0.00,WUHU216HW,2013-02-27 23:26:00,
2013-02-27 15:31:00,45.0,30.7,27.69,WSW,248,1.6,2.2,57,0.00,,,0.00,WUHU216HW,2013-02-27 23:31:00,
2013-02-27 15:36:00,45.4,30.5,27.69,South,180,0.4,2.2,56,0.00,,,0.00,WUHU216HW,2013-02-27 23:36:00,
2013-02-27 15:41:00,45.2,30.8,27.69,NE,45,0.0,2.0,57,0.00,,,0.00,WUHU216HW,2013-02-27 23:41:00,
2013-02-27 15:46:00,45.0,30.7,27.69,ENE,68,0.0,1.3,57,0.00,,,0.00,WUHU216HW,2013-02-27 23:46:00,
2013-02-27 15:51:00,44.6,29.9,27.69,SSW,203,1.1,1.6,56,0.00,,,0.00,WUHU216HW,2013-02-27 23:51:00,
2013-02-27 15:56:00,44.3,30.0,27.69,WSW,248,2.2,2.2,57,0.00,,,0.00,WUHU216HW,2013-02-27 23:56:00,
2013-02-27 16:01:00,44.3,30.4,27.69,ESE,113,0.4,2.2,58,0.00,,,0.00,WUHU216HW,2013-02-28 00:01:00,
2013-02-27 16:06:00,44.3,30.4,27.69,SE,135,0.0,1.3,58,0.00,,,0.00,WUHU216HW,2013-02-28 00:06:00,
2013-02-27 16:12:00,44.3,30.4,27.70,SSW,203,0.4,1.3,58,0.00,,,0.00,WUHU216HW,2013-02-28 00:12:00,
2013-02-27 16:17:00,44.5,30.6,27.70,West,270,0.4,1.6,58,0.00,,,0.00,WUHU216HW,2013-02-28 00:17:00,
2013-02-27 16:22:00,44.8,30.5,27.70,SW,225,1.1,1.8,57,0.00,,,0.00,WUHU216HW,2013-02-28 00:22:00,
2013-02-27 16:27:00,45.2,30.3,27.70,SSW,203,1.8,4.0,56,0.00,,,0.00,WUHU216HW,2013-02-28 00:27:00,
2013-02-27 16:32:00,45.7,30.0,27.71,SW,225,2.5,4.0,54,0.00,,,0.00,WUHU216HW,2013-02-28 00:32:00,
2013-02-27 16:37:00,45.5,29.8,27.71,SSW,203,2.0,3.8,54,0.00,,,0.00,WUHU216HW,2013-02-28 00:37:00,
2013-02-27 16:42:00,45.4,29.6,27.71,SW,225,1.8,4.0,54,0.00,,,0.00,WUHU216HW,2013-02-28 00:42:00,
2013-02-27 16:47:00,45.0,29.4,27.71,SW,225,1.8,4.7,54,0.00,,,0.00,WUHU216HW,2013-02-28 00:47:00,
2013-02-27 16:52:00,44.5,28.4,27.71,SW,225,3.4,4.7,53,0.00,,,0.00,WUHU216HW,2013-02-28 00:52:00,
2013-02-27 16:57:00,43.9,28.3,27.71,SW,225,0.4,4.7,54,0.00,,,0.00,WUHU216HW,2013-02-28 00:57:00,
2013-02-27 17:02:00,43.4,28.3,27.71,SW,225,0.9,3.6,55,0.00,,,0.00,WUHU216HW,2013-02-28 01:02:00,
2013-02-27 17:07:00,42.8,28.2,27.70,SW,225,1.6,2.9,56,0.00,,,0.00,WUHU216HW,2013-02-28 01:07:00,
2013-02-27 17:12:00,42.5,28.3,27.70,SW,225,0.4,2.9,57,0.00,,,0.00,WUHU216HW,2013-02-28 01:12:00,
2013-02-27 17:17:00,42.1,28.4,27.70,SE,135,0.0,1.6,58,0.00,,,0.00,WUHU216HW,2013-02-28 01:17:00,
2013-02-27 17:22:00,41.4,28.2,27.69,ESE,113,0.0,0.4,59,0.00,,,0.00,WUHU216HW,2013-02-28 01:22:00,
2013-02-27 17:27:00,40.5,27.7,27.69,ESE,113,0.0,0.0,60,0.00,,,0.00,WUHU216HW,2013-02-28 01:27:00,
2013-02-27 17:32:00,39.6,27.5,27.69,ESE,113,0.0,0.0,62,0.00,,,0.00,WUHU216HW,2013-02-28 01:32:00,
2013-02-27 17:37:00,38.9,27.3,27.69,ESE,113,0.0,0.2,63,0.00,,,0.00,WUHU216HW,2013-02-28 01:37:00,
2013-02-27 17:42:00,38.3,26.8,27.69,ESE,113,0.0,0.2,63,0.00,,,0.00,WUHU216HW,2013-02-28 01:42:00,
2013-02-27 17:47:00,37.6,26.9,27.69,ESE,113,0.0,0.0,65,0.00,,,0.00,WUHU216HW,2013-02-28 01:47:00,
2013-02-27 17:52:00,36.9,26.6,27.69,ESE,113,0.2,0.4,66,0.00,,,0.00,WUHU216HW,2013-02-28 01:52:00,
2013-02-27 17:57:00,36.2,26.3,27.69,ESE,113,0.0,0.4,67,0.00,,,0.00,WUHU216HW,2013-02-28 01:57:00,
2013-02-27 18:02:00,35.6,26.1,27.69,ESE,113,0.0,0.2,68,0.00,,,0.00,WUHU216HW,2013-02-28 02:02:00,
2013-02-27 18:07:00,35.3,25.7,27.69,ESE,113,0.0,0.0,68,0.00,,,0.00,WUHU216HW,2013-02-28 02:07:00,
2013-02-27 18:12:00,34.9,25.7,27.69,ESE,113,0.0,0.0,69,0.00,,,0.00,WUHU216HW,2013-02-28 02:12:00,
2013-02-27 18:17:00,34.4,25.6,27.69,ESE,113,0.0,0.0,70,0.00,,,0.00,WUHU216HW,2013-02-28 02:17:00,
2013-02-27 18:22:00,34.0,25.2,27.69,ESE,113,0.0,0.4,70,0.00,,,0.00,WUHU216HW,2013-02-28 02:22:00,
2013-02-27 18:27:00,33.7,25.2,27.70,ESE,113,0.4,0.4,71,0.00,,,0.00,WUHU216HW,2013-02-28 02:27:00,
2013-02-27 18:32:00,33.3,24.8,27.70,ESE,113,0.4,0.4,71,0.00,,,0.00,WUHU216HW,2013-02-28 02:32:00,
2013-02-27 18:37:00,32.9,25.2,27.70,ESE,113,0.0,0.4,73,0.00,,,0.00,WUHU216HW,2013-02-28 02:37:00,
2013-02-27 18:42:00,32.8,25.0,27.70,ESE,113,0.0,0.4,73,0.00,,,0.00,WUHU216HW,2013-02-28 02:42:00,
2013-02-27 18:47:00,32.4,25.0,27.70,ESE,113,0.4,0.4,74,0.00,,,0.00,WUHU216HW,2013-02-28 02:47:00,
2013-02-27 18:52:00,32.0,25.0,27.71,ESE,113,0.2,0.4,75,0.00,,,0.00,WUHU216HW,2013-02-28 02:52:00,
2013-02-27 18:57:00,31.7,24.7,27.71,ESE,113,0.0,0.7,75,0.00,,,0.00,WUHU216HW,2013-02-28 02:57:00,
2013-02-27 19:02:00,31.5,24.9,27.71,ESE,113,0.4,0.7,76,0.00,,,0.00,WUHU216HW,2013-02-28 03:02:00,
2013-02-27 19:07:00,31.3,24.9,27.70,ESE,113,0.4,0.7,77,0.00,,,0.00,WUHU216HW,2013-02-28 03:07:00,
2013-02-27 19:12:00,31.3,25.3,27.70,ESE,113,0.4,0.7,78,0.00,,,0.00,WUHU216HW,2013-02-28 03:12:00,
2013-02-27 19:17:00,31.0,24.9,27.70,ESE,113,0.0,0.7,78,0.00,,,0.00,WUHU216HW,2013-02-28 03:17:00,
2013-02-27 19:22:00,30.8,24.8,27.70,ESE,113,0.2,0.7,78,0.00,,,0.00,WUHU216HW,2013-02-28 03:22:00,
2013-02-27 19:27:00,30.6,24.8,27.69,ESE,113,0.7,0.7,79,0.00,,,0.00,WUHU216HW,2013-02-28 03:27:00,
2013-02-27 19:32:00,30.6,24.8,27.69,ESE,113,0.0,0.7,79,0.00,,,0.00,WUHU216HW,2013-02-28 03:32:00,
2013-02-27 19:37:00,30.6,25.2,27.69,ESE,113,0.0,0.4,80,0.00,,,0.00,WUHU216HW,2013-02-28 03:37:00,
2013-02-27 19:42:00,30.6,25.2,27.69,ESE,113,0.0,0.0,80,0.00,,,0.00,WUHU216HW,2013-02-28 03:42:00,
2013-02-27 19:47:00,30.8,25.7,27.69,ESE,113,0.4,0.7,81,0.00,,,0.00,WUHU216HW,2013-02-28 03:47:00,
2013-02-27 19:52:00,30.8,25.7,27.69,ESE,113,0.2,0.7,81,0.00,,,0.00,WUHU216HW,2013-02-28 03:52:00,
2013-02-27 19:57:00,31.0,25.8,27.69,ESE,113,0.0,0.4,81,0.00,,,0.00,WUHU216HW,2013-02-28 03:57:00,
2013-02-27 20:02:00,30.8,25.7,27.68,ESE,113,0.0,0.4,81,0.00,,,0.00,WUHU216HW,2013-02-28 04:02:00,
2013-02-27 20:07:00,30.8,25.7,27.68,ESE,113,0.0,0.0,81,0.00,,,0.00,WUHU216HW,2013-02-28 04:07:00,
2013-02-27 20:12:00,30.8,25.7,27.68,ESE,113,0.0,0.0,81,0.00,,,0.00,WUHU216HW,2013-02-28 04:12:00,
2013-02-27 20:17:00,30.8,25.7,27.69,ESE,113,0.0,0.0,81,0.00,,,0.00,WUHU216HW,2013-02-28 04:17:00,
2013-02-27 20:22:00,30.8,25.7,27.69,ESE,113,0.0,0.0,81,0.00,,,0.00,WUHU216HW,2013-02-28 04:22:00,
2013-02-27 20:27:00,31.0,25.8,27.69,ESE,113,0.0,0.0,81,0.00,,,0.00,WUHU216HW,2013-02-28 04:27:00,
2013-02-27 20:32:00,31.0,25.8,27.69,ESE,113,0.0,0.0,81,0.00,,,0.00,WUHU216HW,2013-02-28 04:32:00,
2013-02-27 20:37:00,31.0,25.8,27.69,ESE,113,0.0,0.7,81,0.00,,,0.00,WUHU216HW,2013-02-28 04:37:00,
2013-02-27 20:42:00,31.0,26.5,27.69,ESE,113,0.4,0.7,83,0.00,,,0.00,WUHU216HW,2013-02-28 04:42:00,
2013-02-27 20:47:00,31.1,26.7,27.69,ESE,113,0.2,0.4,83,0.00,,,0.00,WUHU216HW,2013-02-28 04:47:00,
2013-02-27 20:52:00,31.1,26.7,27.69,ESE,113,0.0,0.4,83,0.00,,,0.00,WUHU216HW,2013-02-28 04:52:00,
2013-02-27 20:57:00,31.3,26.8,27.70,ESE,113,0.4,0.4,83,0.00,,,0.00,WUHU216HW,2013-02-28 04:57:00,
2013-02-27 21:00:00,31.3,27.1,27.70,ESE,113,0.4,0.4,84,0.00,,,0.00,WUHU216HW,2013-02-28 05:00:00,
2013-02-27 21:05:00,31.3,27.1,27.70,East,90,0.0,0.7,84,0.00,,,0.00,WUHU216HW,2013-02-28 05:05:00,
2013-02-27 21:10:00,31.3,27.1,27.70,East,90,0.0,0.7,84,0.00,,,0.00,WUHU216HW,2013-02-28 05:10:00,
2013-02-27 21:15:00,31.5,27.5,27.69,ESE,113,0.4,0.4,85,0.00,,,0.00,WUHU216HW,2013-02-28 05:15:00,
2013-02-27 21:20:00,31.5,27.5,27.69,SW,225,0.0,0.4,85,0.00,,,0.00,WUHU216HW,2013-02-28 05:20:00,
2013-02-27 21:25:00,31.5,27.3,27.69,East,90,0.4,0.4,84,0.00,,,0.00,WUHU216HW,2013-02-28 05:25:00,
2013-02-27 21:30:00,31.5,27.3,27.69,East,90,0.0,0.4,84,0.00,,,0.00,WUHU216HW,2013-02-28 05:30:00,
2013-02-27 21:35:00,31.5,27.3,27.69,East,90,0.0,0.2,84,0.00,,,0.00,WUHU216HW,2013-02-28 05:35:00,
2013-02-27 21:40:00,31.5,27.3,27.68,East,90,0.0,0.0,84,0.00,,,0.00,WUHU216HW,2013-02-28 05:40:00,
2013-02-27 21:45:00,31.5,27.0,27.68,East,90,0.0,0.0,83,0.00,,,0.00,WUHU216HW,2013-02-28 05:45:00,
2013-02-27 21:50:00,31.5,27.0,27.69,East,90,0.0,0.0,83,0.00,,,0.00,WUHU216HW,2013-02-28 05:50:00,
2013-02-27 21:55:00,31.7,27.2,27.69,WSW,248,0.0,0.2,83,0.00,,,0.00,WUHU216HW,2013-02-28 05:55:00,
2013-02-27 22:00:00,31.7,27.2,27.70,WSW,248,0.0,0.2,83,0.00,,,0.00,WUHU216HW,2013-02-28 06:00:00,
2013-02-27 22:05:00,31.5,27.0,27.70,WSW,248,0.0,0.0,83,0.00,,,0.00,WUHU216HW,2013-02-28 06:05:00,
2013-02-27 22:10:00,31.5,27.0,27.71,WSW,248,0.0,0.0,83,0.00,,,0.00,WUHU216HW,2013-02-28 06:10:00,
2013-02-27 22:15:00,31.3,27.4,27.71,SE,135,0.0,0.0,85,0.00,,,0.00,WUHU216HW,2013-02-28 06:15:00,
2013-02-27 22:20:00,31.3,27.1,27.70,SE,135,0.0,0.0,84,0.00,,,0.00,WUHU216HW,2013-02-28 06:20:00,
2013-02-27 22:25:00,31.3,27.1,27.69,SE,135,0.0,0.0,84,0.00,,,0.00,WUHU216HW,2013-02-28 06:25:00,
2013-02-27 22:30:00,31.3,27.1,27.69,SE,135,0.0,0.0,84,0.00,,,0.00,WUHU216HW,2013-02-28 06:30:00,
2013-02-27 22:35:00,31.7,27.7,27.69,SE,135,0.0,0.0,85,0.00,,,0.00,WUHU216HW,2013-02-28 06:35:00,
2013-02-27 22:40:00,31.9,27.6,27.69,SE,135,0.0,0.0,84,0.00,,,0.00,WUHU216HW,2013-02-28 06:40:00,
2013-02-27 22:45:00,31.9,27.9,27.69,SE,135,0.0,0.0,85,0.00,,,0.00,WUHU216HW,2013-02-28 06:45:00,
2013-02-27 22:50:00,31.9,27.9,27.69,SE,135,0.0,0.0,85,0.00,,,0.00,WUHU216HW,2013-02-28 06:50:00,
2013-02-27 22:55:00,32.0,28.1,27.69,ESE,113,0.2,0.2,85,0.00,,,0.00,WUHU216HW,2013-02-28 06:55:00,
2013-02-27 23:00:00,32.0,28.6,27.69,ESE,113,0.0,0.4,87,0.00,,,0.00,WUHU216HW,2013-02-28 07:00:00,
2013-02-27 23:05:00,32.0,28.4,27.69,East,90,0.0,0.7,86,0.00,,,0.00,WUHU216HW,2013-02-28 07:05:00,
2013-02-27 23:10:00,31.9,27.9,27.69,South,180,0.0,0.7,85,0.00,,,0.00,WUHU216HW,2013-02-28 07:10:00,
2013-02-27 23:15:00,31.7,27.7,27.69,ESE,113,0.4,0.4,85,0.00,,,0.00,WUHU216HW,2013-02-28 07:15:00,
2013-02-27 23:20:00,31.3,27.6,27.69,East,90,0.4,0.4,86,0.00,,,0.00,WUHU216HW,2013-02-28 07:20:00,
2013-02-27 23:25:00,31.3,27.6,27.69,East,90,0.0,0.4,86,0.00,,,0.00,WUHU216HW,2013-02-28 07:25:00,
2013-02-27 23:30:00,31.1,27.2,27.69,East,90,0.0,0.2,85,0.00,,,0.00,WUHU216HW,2013-02-28 07:30:00,
2013-02-27 23:35:00,31.0,27.3,27.69,East,90,0.4,0.4,86,0.00,,,0.00,WUHU216HW,2013-02-28 07:35:00,
2013-02-27 23:40:00,31.0,27.3,27.69,East,90,0.0,0.4,86,0.00,,,0.00,WUHU216HW,2013-02-28 07:40:00,
2013-02-27 23:45:00,30.8,27.1,27.69,WSW,248,0.0,0.4,86,0.00,,,0.00,WUHU216HW,2013-02-28 07:45:00,
2013-02-27 23:50:00,30.8,27.1,27.69,WSW,248,0.2,0.4,86,0.00,,,0.00,WUHU216HW,2013-02-28 07:50:00,
2013-02-27 23:55:00,30.8,27.4,27.69,WSW,248,0.0,0.4,87,0.00,,,0.00,WUHU216HW,2013-02-28 07:55:00,